Main page
METAR-TAF:

METAR-TAF

Airports :

Hawarden Airport

Hawarden, Wales

latitude: 53-10N, longitude: 002-59W, elevation: 10 m

Current weather observation

The report was made 10 hours and 46 minutes ago, at 16:50 UTC
Wind 9 kt from the Northwest
Temperature 19°C
Humidity 73%
Pressure 1020 hPa
Visibility 10 km or more
Broken clouds at a height of 3000 ft

METAR: EGNR 231650Z 32009KT 9999 BKN030 19/14 Q1020

Time: 04:36 (03:36 UTC)

Forecast

The report was made 13 hours and 39 minutes ago, at 13:57 UTC
Forecast valid from 23 at 15 UTC to 23 at 18 UTC
Wind 9 kt from the Northwest
Visibility 10 km or more
Scattered clouds at a height of 3000 ft

TAF: EGNR 231357Z 2315/2318 32009KT 9999 SCT030

Weather observations and forecasts of more than 4000 airports (METAR and TAF reports).

The available stations are represented by yellow and red dots on the map.

Hover mouse over dot to see the name of the station.

Then click to see weather observations and forecasts.

To change the map : click on the green buttons with a black cross to zoom in, on the green button with a dash to zoom out, or on the green arrows for adjacent maps.


METAR-TAF: